Time;durP1;ratioP1;P1;durP2;ratioP2;P2;SDS_P1;SDS_P2;PMS_P1;PMS_P2;Temp;Humidity;BMP_temperature;BMP_pressure;BME280_temperature;BME280_humidity;BME280_pressure;Samples;Min_cycle;Max_cycle;Signal;HPM_P1;HPM_P2
2022/10/14 00:00:20;;;;;;;35.67;23.00;;;11.80;99.90;;;;;;5040939;28;20041;-66
2022/10/14 00:02:46;;;;;;;67.20;28.30;;;11.70;99.90;;;;;;5042349;28;20037;-66
2022/10/14 00:05:12;;;;;;;39.95;24.20;;;11.60;99.90;;;;;;5038731;28;20449;-66
2022/10/14 00:07:38;;;;;;;31.77;22.65;;;11.50;99.90;;;;;;5038568;28;20085;-66
2022/10/14 00:10:05;;;;;;;32.13;21.50;;;11.50;99.90;;;;;;5039267;28;20040;-66
2022/10/14 00:12:31;;;;;;;26.20;20.80;;;11.40;99.90;;;;;;5041378;28;20040;-66
2022/10/14 00:14:57;;;;;;;26.55;21.45;;;11.30;99.90;;;;;;5040909;28;20033;-66
2022/10/14 00:17:23;;;;;;;39.03;25.85;;;11.20;99.90;;;;;;5038729;28;20059;-66
2022/10/14 00:19:49;;;;;;;32.50;23.60;;;11.10;99.90;;;;;;5046108;28;20089;-67
2022/10/14 00:22:15;;;;;;;34.92;25.30;;;11.10;99.90;;;;;;5043397;28;20106;-67
2022/10/14 00:24:40;;;;;;;42.58;26.80;;;11.00;99.90;;;;;;5039818;28;20033;-66
2022/10/14 00:27:06;;;;;;;41.00;26.75;;;11.00;99.90;;;;;;5036388;28;20393;-67
2022/10/14 00:29:32;;;;;;;45.17;27.45;;;10.90;99.90;;;;;;5045613;28;20194;-66
2022/10/14 00:31:57;;;;;;;31.73;22.13;;;10.90;99.90;;;;;;5041673;28;20029;-67
2022/10/14 00:34:23;;;;;;;35.80;22.42;;;10.90;99.90;;;;;;5035776;28;20045;-67
2022/10/14 00:36:49;;;;;;;53.22;25.92;;;10.90;99.90;;;;;;5039623;28;20041;-67
2022/10/14 00:39:15;;;;;;;164.52;31.73;;;10.90;99.90;;;;;;5044951;28;20069;-67
2022/10/14 00:41:41;;;;;;;151.02;32.63;;;10.80;99.90;;;;;;5037199;28;20116;-67
2022/10/14 00:44:09;;;;;;;156.43;32.33;;;10.90;99.90;;;;;;5035070;28;20179;-67
2022/10/14 00:46:41;;;;;;;255.40;30.42;;;10.90;99.90;;;;;;5037948;28;20496;-67
2022/10/14 00:49:12;;;;;;;562.00;54.72;;;10.90;99.90;;;;;;5041268;28;20048;-67
2022/10/14 00:51:41;;;;;;;144.25;31.60;;;10.90;99.90;;;;;;5040329;28;20045;-67
2022/10/14 00:54:08;;;;;;;32.53;21.10;;;11.00;99.90;;;;;;5034523;28;20045;-67
2022/10/14 00:56:34;;;;;;;54.38;23.63;;;10.90;99.90;;;;;;5040670;28;20401;-67
2022/10/14 00:59:02;;;;;;;48.17;22.10;;;11.00;99.90;;;;;;5041430;28;20044;-67
2022/10/14 01:01:28;;;;;;;89.60;26.05;;;11.00;99.90;;;;;;5040986;28;20453;-66
2022/10/14 01:03:54;;;;;;;129.70;29.17;;;11.10;99.90;;;;;;5035983;28;20049;-66
2022/10/14 01:06:38;;;;;;;228.00;37.75;;;11.10;99.90;;;;;;5039870;28;20131;-66
2022/10/14 01:09:11;;;;;;;86.65;23.05;;;11.10;99.90;;;;;;5039267;28;20057;-66
2022/10/14 01:11:51;;;;;;;96.70;26.63;;;11.10;99.90;;;;;;5034363;28;20041;-68
2022/10/14 01:14:29;;;;;;;236.40;37.30;;;11.20;99.90;;;;;;5044378;28;20114;-66
2022/10/14 01:17:21;;;;;;;66.90;20.67;;;11.10;99.90;;;;;;5040294;28;20045;-66
2022/10/14 01:19:55;;;;;;;53.35;21.25;;;11.10;99.90;;;;;;5040047;28;20029;-66
2022/10/14 01:22:34;;;;;;;68.60;21.60;;;11.20;99.90;;;;;;5033197;28;20041;-67
2022/10/14 01:25:05;;;;;;;39.90;18.75;;;11.20;99.90;;;;;;5036509;28;20366;-67
2022/10/14 01:28:00;;;;;;;33.53;19.08;;;11.20;99.90;;;;;;5038772;28;20053;-66
2022/10/14 01:30:33;;;;;;;61.70;21.13;;;11.20;99.90;;;;;;5037386;28;20048;-66
2022/10/14 01:33:13;;;;;;;98.45;23.63;;;11.20;99.90;;;;;;5036694;28;20492;-67
2022/10/14 01:36:04;;;;;;;224.75;32.50;;;11.10;99.90;;;;;;5037990;28;20396;-67
2022/10/14 01:38:36;;;;;;;74.45;21.55;;;11.20;99.90;;;;;;5038870;28;20041;-66
2022/10/14 01:41:08;;;;;;;115.53;23.50;;;11.20;99.90;;;;;;5034010;28;20099;-66
2022/10/14 01:43:35;;;;;;;266.33;31.60;;;11.20;99.90;;;;;;5040289;28;20465;-66
2022/10/14 01:46:05;;;;;;;187.32;25.63;;;11.20;99.90;;;;;;5040152;28;20442;-66
2022/10/14 01:48:35;;;;;;;271.58;26.63;;;11.20;99.90;;;;;;5037730;28;20064;-67
2022/10/14 01:51:07;;;;;;;358.05;29.88;;;11.10;99.90;;;;;;5034515;28;20474;-66
2022/10/14 01:53:41;;;;;;;249.75;26.67;;;11.10;99.90;;;;;;5037515;28;20046;-66
2022/10/14 01:56:08;;;;;;;88.07;17.83;;;11.20;99.90;;;;;;5041282;28;20049;-67
2022/10/14 01:58:36;;;;;;;198.52;23.20;;;11.20;99.90;;;;;;5036350;28;20040;-67
2022/10/14 02:01:04;;;;;;;253.63;25.10;;;11.20;99.90;;;;;;5037944;28;20563;-66
2022/10/14 02:03:41;;;;;;;137.00;20.05;;;11.20;99.90;;;;;;5039334;28;20512;-66
2022/10/14 02:06:15;;;;;;;220.68;23.13;;;11.20;99.90;;;;;;5040833;28;20468;-66
2022/10/14 02:09:07;;;;;;;286.65;26.15;;;11.20;99.90;;;;;;5040374;28;20045;-66
2022/10/14 02:12:12;;;;;;;162.35;20.98;;;11.20;99.90;;;;;;5039287;28;20037;-67
2022/10/14 02:14:59;;;;;;;267.25;24.92;;;11.20;99.90;;;;;;5011831;28;20053;-66
2022/10/14 02:17:32;;;;;;;90.53;18.55;;;11.10;99.90;;;;;;5041962;28;20049;-66
2022/10/14 02:20:16;;;;;;;87.70;17.58;;;11.10;99.90;;;;;;5038390;28;20039;-67
2022/10/14 02:23:17;;;;;;;63.63;18.08;;;11.10;99.90;;;;;;5047604;28;20512;-67
2022/10/14 02:25:45;;;;;;;101.13;19.30;;;11.10;99.90;;;;;;5040971;28;20037;-67
2022/10/14 02:28:17;;;;;;;93.30;18.90;;;11.10;99.90;;;;;;5034085;28;20124;-66
2022/10/14 02:30:53;;;;;;;173.88;22.63;;;11.20;99.90;;;;;;5042652;28;20044;-66
2022/10/14 02:33:25;;;;;;;131.23;21.95;;;11.10;99.90;;;;;;5038324;28;20094;-67
2022/10/14 02:35:52;;;;;;;159.93;21.55;;;11.10;99.90;;;;;;5041310;28;20033;-67
2022/10/14 02:38:19;;;;;;;253.05;23.92;;;11.20;99.90;;;;;;5035722;28;20493;-67
2022/10/14 02:40:49;;;;;;;109.80;18.38;;;11.10;99.90;;;;;;5040135;28;20045;-66
2022/10/14 02:43:15;;;;;;;181.05;21.52;;;11.10;99.90;;;;;;5040663;28;20457;-66
2022/10/14 02:45:43;;;;;;;79.97;17.02;;;11.10;99.90;;;;;;5043391;28;20084;-67
2022/10/14 02:48:10;;;;;;;287.92;24.10;;;11.10;99.90;;;;;;5038526;28;20124;-67
2022/10/14 02:50:36;;;;;;;111.90;17.83;;;11.20;99.90;;;;;;5038074;28;20044;-67
2022/10/14 02:53:02;;;;;;;184.00;21.95;;;11.10;99.90;;;;;;5044940;28;20347;-67
2022/10/14 02:55:28;;;;;;;205.57;21.17;;;11.20;99.90;;;;;;5038888;28;20045;-67
2022/10/14 02:57:54;;;;;;;146.82;19.65;;;11.20;99.90;;;;;;5039190;28;20142;-67
2022/10/14 03:00:20;;;;;;;285.90;23.33;;;11.20;99.90;;;;;;5039387;28;20140;-67
2022/10/14 03:02:45;;;;;;;183.20;21.35;;;11.20;99.90;;;;;;5044272;28;20052;-67
2022/10/14 03:05:11;;;;;;;155.93;21.50;;;11.20;99.90;;;;;;5037799;28;20048;-67
2022/10/14 03:07:37;;;;;;;297.67;25.83;;;11.20;99.90;;;;;;5041076;28;20057;-66
2022/10/14 03:10:03;;;;;;;244.52;25.42;;;11.20;99.90;;;;;;5040393;28;20073;-67
2022/10/14 03:12:29;;;;;;;298.27;27.55;;;11.20;99.90;;;;;;5042061;28;20060;-67
2022/10/14 03:14:54;;;;;;;284.70;24.38;;;11.20;99.90;;;;;;5021130;28;20131;-67
2022/10/14 03:17:20;;;;;;;272.35;27.73;;;11.20;99.90;;;;;;5037791;28;20041;-67
2022/10/14 03:19:46;;;;;;;193.27;23.65;;;11.20;99.90;;;;;;5042138;28;20033;-67
2022/10/14 03:22:11;;;;;;;216.43;27.17;;;11.20;99.90;;;;;;5041304;28;21357;-66
2022/10/14 03:24:37;;;;;;;299.30;29.73;;;11.20;99.90;;;;;;5039975;28;20464;-67
2022/10/14 03:27:03;;;;;;;331.05;29.35;;;11.20;99.90;;;;;;5033985;28;20082;-68
2022/10/14 03:29:28;;;;;;;129.60;22.60;;;11.20;99.90;;;;;;5044906;28;20044;-67
2022/10/14 03:31:54;;;;;;;111.85;23.58;;;11.20;99.90;;;;;;5041207;28;20445;-67
2022/10/14 03:34:20;;;;;;;130.02;24.15;;;11.20;99.90;;;;;;5045975;28;20369;-66
2022/10/14 03:36:46;;;;;;;193.07;28.00;;;11.20;99.90;;;;;;5038192;28;20041;-67
2022/10/14 03:39:11;;;;;;;182.35;28.55;;;11.20;99.90;;;;;;5044789;28;20052;-67
2022/10/14 03:41:37;;;;;;;289.77;31.60;;;11.20;99.90;;;;;;5037685;28;20037;-67
2022/10/14 03:44:03;;;;;;;100.45;23.77;;;11.20;99.90;;;;;;5042424;28;20056;-67
2022/10/14 03:46:29;;;;;;;256.85;31.75;;;11.20;99.90;;;;;;5038652;28;20045;-67
2022/10/14 03:48:56;;;;;;;109.30;25.02;;;11.20;99.90;;;;;;5043978;28;20465;-67
2022/10/14 03:51:21;;;;;;;267.80;32.30;;;11.20;99.90;;;;;;5040226;28;20042;-67
2022/10/14 03:53:47;;;;;;;295.25;34.03;;;11.20;99.90;;;;;;5040032;28;20408;-67
2022/10/14 03:56:13;;;;;;;101.28;27.02;;;11.20;99.90;;;;;;5043122;28;20095;-67
2022/10/14 03:58:38;;;;;;;299.90;34.85;;;11.20;99.90;;;;;;5042055;28;20052;-67
2022/10/14 04:01:04;;;;;;;139.43;29.15;;;11.10;99.90;;;;;;5043351;28;20052;-67
2022/10/14 04:03:30;;;;;;;297.52;37.25;;;11.10;99.90;;;;;;5033410;28;20045;-67
2022/10/14 04:05:55;;;;;;;129.63;28.50;;;11.10;99.90;;;;;;5036889;28;20040;-67
2022/10/14 04:08:21;;;;;;;208.23;31.85;;;11.10;99.90;;;;;;5040318;28;20056;-68
2022/10/14 04:10:54;;;;;;;324.58;37.95;;;11.10;99.90;;;;;;5039737;28;20037;-68
2022/10/14 04:13:20;;;;;;;101.55;27.20;;;11.10;99.90;;;;;;5037332;28;20037;-67
2022/10/14 04:15:45;;;;;;;123.57;28.65;;;11.10;99.90;;;;;;5038456;28;20397;-67
2022/10/14 04:18:11;;;;;;;306.80;38.30;;;11.10;99.90;;;;;;5038484;28;20128;-68
2022/10/14 04:20:37;;;;;;;141.95;29.92;;;11.10;99.90;;;;;;5044453;28;20041;-68
2022/10/14 04:23:03;;;;;;;384.45;40.22;;;11.10;99.90;;;;;;5036940;28;20033;-67
2022/10/14 04:25:29;;;;;;;305.40;38.92;;;11.00;99.90;;;;;;5040305;28;20394;-67
2022/10/14 04:27:55;;;;;;;148.43;30.77;;;11.00;99.90;;;;;;5040231;28;20410;-67
2022/10/14 04:30:20;;;;;;;99.63;26.73;;;11.00;99.90;;;;;;5038929;28;20179;-67
2022/10/14 04:32:46;;;;;;;236.20;33.33;;;11.00;99.90;;;;;;5038901;28;20036;-68
2022/10/14 04:35:12;;;;;;;232.02;33.47;;;11.00;99.90;;;;;;5040260;28;20033;-67
2022/10/14 04:37:38;;;;;;;182.73;30.33;;;11.00;99.90;;;;;;5029073;28;20053;-68
2022/10/14 04:40:04;;;;;;;261.73;34.03;;;11.00;99.90;;;;;;5036988;28;20079;-67
2022/10/14 04:42:30;;;;;;;283.90;35.42;;;11.00;99.90;;;;;;5037668;28;20486;-67
2022/10/14 04:44:55;;;;;;;178.20;30.02;;;10.90;99.90;;;;;;5044221;28;20075;-67
2022/10/14 04:47:21;;;;;;;208.40;31.40;;;10.90;99.90;;;;;;5039668;28;20084;-67
2022/10/14 04:49:47;;;;;;;263.27;32.60;;;10.90;99.90;;;;;;5037237;28;20033;-67
2022/10/14 04:52:12;;;;;;;313.63;37.03;;;10.90;99.90;;;;;;5038916;28;20044;-67
2022/10/14 04:54:38;;;;;;;382.48;40.35;;;11.00;99.90;;;;;;5038561;28;20119;-68
2022/10/14 04:57:04;;;;;;;339.67;38.17;;;10.90;99.90;;;;;;5040383;28;20080;-67
2022/10/14 04:59:29;;;;;;;382.17;39.63;;;10.90;99.90;;;;;;5039920;28;20227;-66
2022/10/14 05:01:55;;;;;;;376.73;41.63;;;10.90;99.90;;;;;;5042611;28;20111;-67
2022/10/14 05:04:21;;;;;;;394.95;40.78;;;11.00;99.90;;;;;;5043176;28;20037;-67
2022/10/14 05:06:47;;;;;;;389.80;42.70;;;10.90;99.90;;;;;;5040724;28;20048;-67
2022/10/14 05:09:12;;;;;;;397.02;44.53;;;11.00;99.90;;;;;;5040180;28;20049;-67
2022/10/14 05:11:38;;;;;;;221.02;37.33;;;11.00;99.90;;;;;;5042398;28;20072;-67
2022/10/14 05:14:04;;;;;;;373.48;41.40;;;11.00;99.90;;;;;;5042745;28;20037;-67
2022/10/14 05:16:30;;;;;;;282.10;38.25;;;11.00;99.90;;;;;;5042132;28;20048;-67
2022/10/14 05:18:56;;;;;;;350.85;40.15;;;11.00;99.90;;;;;;5042388;28;20519;-67
2022/10/14 05:21:22;;;;;;;230.55;33.13;;;11.00;99.90;;;;;;5042572;28;20509;-67
2022/10/14 05:23:47;;;;;;;208.25;31.83;;;11.00;99.90;;;;;;5042796;28;20136;-67
2022/10/14 05:26:13;;;;;;;149.77;30.88;;;11.00;99.90;;;;;;5039611;28;20476;-67
2022/10/14 05:28:39;;;;;;;185.35;30.10;;;11.00;99.90;;;;;;5039476;28;20075;-67
2022/10/14 05:31:05;;;;;;;338.40;35.72;;;10.90;99.90;;;;;;5039137;28;20485;-67
2022/10/14 05:33:31;;;;;;;230.00;30.80;;;11.00;99.90;;;;;;5040455;28;20037;-67
2022/10/14 05:35:57;;;;;;;268.73;33.92;;;11.00;99.90;;;;;;5045298;28;20041;-67
2022/10/14 05:38:23;;;;;;;227.57;31.92;;;10.90;99.90;;;;;;5044634;28;20048;-67
2022/10/14 05:40:56;;;;;;;331.65;35.13;;;11.00;99.90;;;;;;5038868;28;20072;-67
2022/10/14 05:43:25;;;;;;;247.20;33.28;;;11.00;99.90;;;;;;5042409;28;20044;-67
2022/10/14 05:45:51;;;;;;;283.73;35.15;;;10.90;99.90;;;;;;5039465;28;20042;-66
2022/10/14 05:48:19;;;;;;;309.65;37.83;;;10.90;99.90;;;;;;5040650;28;20044;-66
2022/10/14 05:50:44;;;;;;;175.27;33.53;;;10.90;99.90;;;;;;5045967;28;20036;-66
2022/10/14 05:53:11;;;;;;;177.93;34.95;;;10.90;99.90;;;;;;5044799;28;20555;-67
2022/10/14 05:55:37;;;;;;;288.60;41.67;;;10.90;99.90;;;;;;5046659;28;20095;-67
2022/10/14 05:58:03;;;;;;;222.43;38.47;;;10.90;99.90;;;;;;5043580;28;20061;-66
2022/10/14 06:00:28;;;;;;;158.52;34.45;;;10.90;99.90;;;;;;5048396;28;20044;-67
2022/10/14 06:02:56;;;;;;;257.60;40.72;;;10.90;99.90;;;;;;5043773;28;20055;-67
2022/10/14 06:05:22;;;;;;;147.30;34.75;;;10.90;99.90;;;;;;5043082;28;20045;-67
2022/10/14 06:07:48;;;;;;;163.43;36.53;;;10.90;99.90;;;;;;5041831;28;20554;-67
2022/10/14 06:10:14;;;;;;;213.40;39.30;;;10.90;99.90;;;;;;5042705;28;20508;-67
2022/10/14 06:12:39;;;;;;;452.98;47.97;;;10.90;99.90;;;;;;5042501;28;20122;-67
2022/10/14 06:15:06;;;;;;;440.27;48.70;;;10.90;99.90;;;;;;5041978;28;20515;-67
2022/10/14 06:17:31;;;;;;;181.65;34.85;;;10.90;99.90;;;;;;5042713;28;20045;-66
2022/10/14 06:19:57;;;;;;;228.82;38.90;;;10.90;99.90;;;;;;5040883;28;20059;-67
2022/10/14 06:22:22;;;;;;;186.60;34.70;;;10.90;99.90;;;;;;5044621;28;20388;-66
2022/10/14 06:24:48;;;;;;;435.85;49.03;;;10.90;99.90;;;;;;5046587;28;20496;-67
2022/10/14 06:27:14;;;;;;;379.60;46.80;;;10.90;99.90;;;;;;5036218;28;20443;-67
2022/10/14 06:29:39;;;;;;;285.77;40.75;;;11.00;99.90;;;;;;5040911;28;20033;-67
2022/10/14 06:57:48;;;;;;;104.90;32.30;;;11.20;99.90;;;;;;5041840;28;21227;-66
2022/10/14 07:00:14;;;;;;;166.77;35.33;;;11.20;99.90;;;;;;5040592;28;20057;-67
2022/10/14 07:02:40;;;;;;;107.57;32.63;;;11.20;99.90;;;;;;5037027;28;20120;-66
2022/10/14 07:05:06;;;;;;;91.70;30.88;;;11.20;99.90;;;;;;5041790;28;20466;-66
2022/10/14 07:07:32;;;;;;;118.28;32.05;;;11.30;99.90;;;;;;5042534;28;20061;-66
2022/10/14 07:09:58;;;;;;;87.57;29.65;;;11.30;99.90;;;;;;5041485;28;20398;-67
2022/10/14 07:12:24;;;;;;;79.15;28.90;;;11.30;99.90;;;;;;5041315;28;20041;-66
2022/10/14 07:14:50;;;;;;;154.70;34.60;;;11.40;99.90;;;;;;5044720;28;20032;-67
2022/10/14 07:17:15;;;;;;;87.18;28.92;;;11.40;99.90;;;;;;5041577;28;20045;-66
2022/10/14 07:19:41;;;;;;;67.32;28.13;;;11.40;99.90;;;;;;5038931;28;20041;-66
2022/10/14 07:22:07;;;;;;;90.20;29.80;;;11.50;99.90;;;;;;5040031;28;20041;-67
2022/10/14 07:24:32;;;;;;;78.03;28.08;;;11.50;99.90;;;;;;5040774;28;20040;-66
2022/10/14 07:26:58;;;;;;;92.10;30.40;;;11.50;99.90;;;;;;5042765;28;20175;-67
2022/10/14 07:29:24;;;;;;;122.03;31.70;;;11.50;99.90;;;;;;5044282;28;20134;-67
2022/10/14 07:31:49;;;;;;;95.75;31.40;;;11.50;99.90;;;;;;5043607;28;20509;-67
2022/10/14 07:34:15;;;;;;;92.18;30.25;;;11.60;99.90;;;;;;5043555;28;20048;-66
2022/10/14 07:36:41;;;;;;;82.97;31.02;;;11.60;99.90;;;;;;5038134;28;20036;-66
2022/10/14 07:39:08;;;;;;;66.53;27.85;;;11.60;99.90;;;;;;5042306;28;20430;-66
2022/10/14 07:41:39;;;;;;;57.10;28.05;;;11.60;99.90;;;;;;5038508;28;20061;-66
2022/10/14 07:44:15;;;;;;;68.35;29.80;;;11.70;99.90;;;;;;5043666;28;20566;-66
2022/10/14 07:46:44;;;;;;;53.42;26.05;;;11.70;99.90;;;;;;5042591;28;20042;-67
2022/10/14 07:49:17;;;;;;;64.38;28.58;;;11.70;99.90;;;;;;5043299;28;20036;-66
2022/10/14 07:51:46;;;;;;;56.35;28.13;;;11.70;99.90;;;;;;5042572;28;20422;-66
2022/10/14 07:54:21;;;;;;;74.43;30.70;;;11.80;99.90;;;;;;5040053;28;20033;-66
2022/10/14 07:56:49;;;;;;;62.30;28.80;;;11.80;99.90;;;;;;5039538;28;20081;-66
2022/10/14 07:59:17;;;;;;;58.97;28.98;;;11.90;99.90;;;;;;5042530;28;20477;-67
2022/10/14 08:01:46;;;;;;;62.17;28.60;;;11.80;99.90;;;;;;5043334;28;20072;-66
2022/10/14 08:04:11;;;;;;;94.47;33.55;;;11.90;99.90;;;;;;5038014;28;20073;-66
2022/10/14 08:06:37;;;;;;;72.20;31.48;;;12.00;99.90;;;;;;5044606;28;20738;-66
2022/10/14 08:09:04;;;;;;;55.83;28.17;;;12.00;99.90;;;;;;5040288;28;20123;-66
2022/10/14 08:11:30;;;;;;;63.03;31.40;;;12.10;99.90;;;;;;5042477;28;20045;-65
2022/10/14 08:13:57;;;;;;;65.20;31.75;;;12.10;99.90;;;;;;5039120;28;20043;-66
2022/10/14 08:16:28;;;;;;;54.90;30.05;;;12.10;99.90;;;;;;5039069;28;20044;-66
2022/10/14 08:19:01;;;;;;;73.07;33.17;;;12.10;99.90;;;;;;5042263;28;20446;-66
2022/10/14 08:21:27;;;;;;;76.40;33.40;;;12.10;99.90;;;;;;5041723;28;20129;-66
2022/10/14 08:23:53;;;;;;;92.70;34.53;;;12.10;99.90;;;;;;5040593;28;20045;-66
2022/10/14 08:26:29;;;;;;;79.63;34.20;;;12.20;99.90;;;;;;5037206;28;20449;-66
2022/10/14 08:28:56;;;;;;;58.83;31.77;;;12.20;99.90;;;;;;5042014;28;20045;-65
2022/10/14 08:31:22;;;;;;;64.53;32.85;;;12.20;99.90;;;;;;5042555;28;20148;-65
2022/10/14 08:33:48;;;;;;;71.70;32.80;;;12.20;99.90;;;;;;5043724;28;20583;-65
2022/10/14 08:36:14;;;;;;;71.85;33.85;;;12.20;99.90;;;;;;5040434;28;20485;-65
2022/10/14 08:38:40;;;;;;;61.03;32.58;;;12.20;99.90;;;;;;5038398;28;20258;-66
2022/10/14 08:41:49;;;;;;;65.85;33.60;;;12.20;99.90;;;;;;5040394;28;20052;-65
2022/10/14 08:44:26;;;;;;;71.22;33.90;;;12.20;99.90;;;;;;5010365;28;20102;-65
2022/10/14 08:47:00;;;;;;;75.22;34.47;;;12.20;99.90;;;;;;5040814;28;20152;-65
2022/10/14 08:49:43;;;;;;;84.25;34.53;;;12.20;99.90;;;;;;5040082;28;20102;-66
2022/10/14 08:52:16;;;;;;;61.95;33.15;;;12.20;99.90;;;;;;5035818;28;20119;-65
2022/10/14 08:54:50;;;;;;;65.13;34.25;;;12.20;99.90;;;;;;5041706;28;20033;-66
2022/10/14 08:57:26;;;;;;;71.50;34.45;;;12.30;99.90;;;;;;5039271;28;20497;-66
2022/10/14 08:59:52;;;;;;;76.18;35.15;;;12.30;99.90;;;;;;5035220;28;20125;-67
2022/10/14 09:02:36;;;;;;;81.93;37.05;;;12.30;99.90;;;;;;5037620;28;20214;-68
2022/10/14 09:05:03;;;;;;;87.47;37.42;;;12.40;99.90;;;;;;5042819;28;20033;-68
2022/10/14 09:07:32;;;;;;;90.72;39.08;;;12.30;99.90;;;;;;5042472;28;20038;-67
2022/10/14 09:10:04;;;;;;;74.15;34.88;;;12.40;99.90;;;;;;5039195;28;20072;-66
2022/10/14 09:12:34;;;;;;;73.70;34.50;;;12.50;99.90;;;;;;5042447;28;20045;-65
2022/10/14 09:15:12;;;;;;;88.80;37.05;;;12.40;99.90;;;;;;5039283;28;20052;-65
2022/10/14 09:18:03;;;;;;;96.55;34.83;;;12.40;99.90;;;;;;5041398;28;20122;-66
2022/10/14 09:20:29;;;;;;;105.00;35.58;;;12.40;99.90;;;;;;5042610;28;20033;-67
2022/10/14 09:22:59;;;;;;;122.05;37.40;;;12.50;99.90;;;;;;5041577;28;20533;-67
2022/10/14 09:25:25;;;;;;;67.78;30.33;;;12.50;99.90;;;;;;5037347;28;20052;-66
2022/10/14 09:27:51;;;;;;;117.55;37.75;;;12.50;99.90;;;;;;5037993;28;20041;-65
2022/10/14 09:30:17;;;;;;;91.93;34.65;;;12.50;99.90;;;;;;5044259;28;20033;-65
2022/10/14 09:32:49;;;;;;;72.95;31.10;;;12.60;99.90;;;;;;5036831;28;20044;-66
2022/10/14 09:35:23;;;;;;;74.18;31.20;;;12.60;99.90;;;;;;5039940;28;20037;-66
2022/10/14 09:37:50;;;;;;;82.05;32.88;;;12.60;99.90;;;;;;5038857;28;20045;-65
2022/10/14 09:40:20;;;;;;;72.13;31.10;;;12.60;99.90;;;;;;5042318;28;20420;-65
2022/10/14 09:43:11;;;;;;;141.70;35.75;;;12.60;99.90;;;;;;5041170;28;20045;-66
2022/10/14 09:46:00;;;;;;;105.88;33.85;;;12.50;99.90;;;;;;5041984;28;20087;-66
2022/10/14 09:48:31;;;;;;;148.10;36.08;;;12.50;99.90;;;;;;5041631;28;20611;-66
2022/10/14 09:50:59;;;;;;;84.35;32.22;;;12.50;99.90;;;;;;5038859;28;20033;-65
2022/10/14 09:53:48;;;;;;;89.68;32.40;;;12.50;99.90;;;;;;5037786;28;20045;-66
2022/10/14 09:56:14;;;;;;;109.07;33.45;;;12.50;99.90;;;;;;5022193;28;20037;-67
2022/10/14 09:58:53;;;;;;;88.75;32.42;;;12.50;99.90;;;;;;5036249;28;20501;-67
2022/10/14 10:01:21;;;;;;;82.65;30.90;;;12.50;99.90;;;;;;5038180;28;20063;-66
2022/10/14 10:03:49;;;;;;;88.78;30.13;;;12.50;99.90;;;;;;5037641;28;20151;-65
2022/10/14 10:06:19;;;;;;;123.13;33.33;;;12.60;99.90;;;;;;5034857;28;20080;-66
2022/10/14 10:08:56;;;;;;;140.70;35.40;;;12.60;99.90;;;;;;5038048;28;20483;-66
2022/10/14 10:11:42;;;;;;;126.30;33.53;;;12.60;99.90;;;;;;5035751;28;20184;-65
2022/10/14 10:14:26;;;;;;;82.53;30.33;;;12.70;99.90;;;;;;5035434;28;20045;-65
2022/10/14 10:17:17;;;;;;;79.32;29.02;;;12.70;99.90;;;;;;5036099;28;20124;-64
2022/10/14 10:19:46;;;;;;;80.70;28.10;;;12.70;99.90;;;;;;5033516;28;20046;-65
2022/10/14 10:22:22;;;;;;;84.15;28.67;;;12.70;99.90;;;;;;5036344;28;20052;-65
2022/10/14 10:24:51;;;;;;;115.97;30.85;;;12.80;99.90;;;;;;5036730;28;20033;-65
2022/10/14 10:27:23;;;;;;;69.72;26.13;;;12.80;99.90;;;;;;5037878;28;20038;-64
2022/10/14 10:29:49;;;;;;;83.10;28.10;;;12.80;99.90;;;;;;5036560;28;20040;-65
2022/10/14 10:32:23;;;;;;;97.28;27.20;;;12.80;99.90;;;;;;5041149;28;20049;-65
2022/10/14 10:35:13;;;;;;;95.38;26.92;;;12.90;99.90;;;;;;5036853;28;20389;-65
2022/10/14 10:37:51;;;;;;;81.88;25.33;;;12.90;99.90;;;;;;5041380;28;20184;-66
2022/10/14 10:40:31;;;;;;;55.58;22.80;;;12.90;99.90;;;;;;5048155;28;20127;-65
2022/10/14 10:43:12;;;;;;;58.08;21.92;;;12.90;99.90;;;;;;5043295;28;20120;-65
2022/10/14 10:45:52;;;;;;;46.65;18.77;;;12.90;99.90;;;;;;5028952;28;20041;-66
2022/10/14 10:48:24;;;;;;;71.60;21.00;;;13.00;99.90;;;;;;5038090;28;20041;-65
2022/10/14 10:51:17;;;;;;;78.57;22.17;;;12.90;99.90;;;;;;5044389;28;20175;-65
2022/10/14 10:53:45;;;;;;;90.80;23.17;;;13.00;99.90;;;;;;5028460;28;20581;-66
2022/10/14 10:56:56;;;;;;;91.57;23.50;;;13.00;99.90;;;;;;5036281;28;20048;-66
2022/10/14 10:59:29;;;;;;;96.18;23.23;;;13.00;99.90;;;;;;5006255;28;21661;-67
2022/10/14 11:01:58;;;;;;;57.35;20.40;;;13.00;99.90;;;;;;5000851;28;20471;-66
2022/10/14 11:04:41;;;;;;;50.33;18.67;;;13.10;99.90;;;;;;5023698;28;20042;-66
2022/10/14 11:13:37;;;;;;;79.07;20.55;;;13.10;99.90;;;;;;5043089;28;20041;-65
2022/10/14 11:16:12;;;;;;;56.17;20.33;;;13.10;99.90;;;;;;5042277;28;20425;-65
2022/10/14 11:18:47;;;;;;;49.00;19.13;;;13.10;99.90;;;;;;5042676;28;20132;-65
2022/10/14 11:21:42;;;;;;;52.50;20.75;;;13.10;99.90;;;;;;5044531;28;20052;-66
2022/10/14 11:24:23;;;;;;;64.85;22.95;;;13.20;99.90;;;;;;5034635;28;20049;-66
2022/10/14 11:26:49;;;;;;;63.30;24.17;;;13.20;99.90;;;;;;5041035;28;20061;-66
2022/10/14 11:29:42;;;;;;;85.32;26.25;;;13.20;99.90;;;;;;5037609;28;20083;-65
2022/10/14 11:32:55;;;;;;;96.60;26.92;;;13.20;99.90;;;;;;5039947;28;20040;-65
2022/10/14 11:35:53;;;;;;;162.60;32.92;;;13.20;99.90;;;;;;4950058;28;20073;-66
2022/10/14 11:38:57;;;;;;;116.15;32.33;;;13.30;99.90;;;;;;5038471;28;20488;-66
2022/10/14 11:41:53;;;;;;;165.60;35.45;;;13.30;99.90;;;;;;5035852;28;20521;-66
2022/10/14 11:44:28;;;;;;;87.18;30.92;;;13.40;99.90;;;;;;5040141;28;20191;-65
2022/10/14 11:46:57;;;;;;;138.82;35.28;;;13.40;99.90;;;;;;5037245;28;20119;-66
2022/10/14 11:49:36;;;;;;;179.70;39.78;;;13.40;99.90;;;;;;5038200;28;20041;-66
2022/10/14 11:52:07;;;;;;;140.73;38.55;;;13.40;99.90;;;;;;5037210;28;20060;-65
2022/10/14 11:54:45;;;;;;;186.00;41.28;;;13.50;99.90;;;;;;5040651;28;20377;-66
2022/10/14 11:57:26;;;;;;;112.45;37.08;;;13.50;99.90;;;;;;5039961;28;20040;-65
2022/10/14 12:00:03;;;;;;;172.18;43.45;;;13.60;99.90;;;;;;5041280;28;20032;-65
2022/10/14 12:02:46;;;;;;;155.40;41.40;;;13.60;99.90;;;;;;5038563;28;20079;-65
2022/10/14 12:05:30;;;;;;;109.53;39.97;;;13.60;99.90;;;;;;5035667;28;20397;-66
2022/10/14 12:08:08;;;;;;;167.82;44.55;;;13.60;99.90;;;;;;5036472;28;20050;-66
2022/10/14 12:10:39;;;;;;;199.85;45.58;;;13.70;99.90;;;;;;5042135;28;20075;-68
2022/10/14 12:13:12;;;;;;;150.52;42.67;;;13.70;99.90;;;;;;5038949;28;20042;-65
2022/10/14 12:15:43;;;;;;;228.52;49.75;;;13.70;99.90;;;;;;5041969;28;20452;-65
2022/10/14 12:18:11;;;;;;;106.15;39.72;;;13.70;99.90;;;;;;5041944;28;20045;-66
2022/10/14 12:20:56;;;;;;;160.90;44.63;;;13.80;99.90;;;;;;5040977;28;20041;-66
2022/10/14 12:23:34;;;;;;;162.80;43.85;;;13.90;99.90;;;;;;5042411;28;20040;-65
2022/10/14 12:26:14;;;;;;;180.77;46.88;;;13.90;99.90;;;;;;5038998;28;20480;-66
2022/10/14 12:28:41;;;;;;;151.00;43.90;;;13.90;99.90;;;;;;5032661;28;20045;-66
2022/10/14 12:31:27;;;;;;;158.20;44.72;;;14.00;99.90;;;;;;5038436;28;20120;-65
2022/10/14 12:34:14;;;;;;;186.63;45.90;;;14.00;99.90;;;;;;5036806;28;20401;-66
2022/10/14 12:36:42;;;;;;;138.50;41.15;;;14.10;99.90;;;;;;5039967;28;20042;-65
2022/10/14 12:39:17;;;;;;;162.50;42.50;;;14.10;99.90;;;;;;5009010;28;20084;-65
2022/10/14 12:41:58;;;;;;;153.23;44.00;;;14.20;99.90;;;;;;5039350;28;20085;-66
2022/10/14 12:44:44;;;;;;;89.97;36.28;;;14.30;99.90;;;;;;5038229;28;20070;-65
2022/10/14 12:47:32;;;;;;;113.63;37.38;;;14.50;99.90;;;;;;5032714;28;20092;-65
2022/10/14 12:50:06;;;;;;;122.82;38.50;;;14.60;99.90;;;;;;5037617;28;20136;-65
2022/10/14 12:52:35;;;;;;;68.60;32.25;;;14.60;99.90;;;;;;5038224;28;20578;-67
2022/10/14 12:55:08;;;;;;;70.85;31.55;;;14.70;99.90;;;;;;5040538;28;20442;-66
2022/10/14 12:57:35;;;;;;;55.88;28.90;;;14.70;99.90;;;;;;5042112;28;20048;-65
2022/10/14 13:00:22;;;;;;;93.93;32.83;;;14.80;99.90;;;;;;5038144;28;20063;-65
2022/10/14 13:02:55;;;;;;;56.97;26.15;;;14.80;99.90;;;;;;5041984;28;20028;-65
2022/10/14 13:05:33;;;;;;;53.30;26.48;;;14.90;99.90;;;;;;5039982;28;20059;-65
2022/10/14 13:08:24;;;;;;;42.63;22.88;;;14.90;99.90;;;;;;5037814;28;20070;-65
2022/10/14 13:11:01;;;;;;;35.70;21.67;;;14.90;99.90;;;;;;5040667;28;20094;-65
2022/10/14 13:13:46;;;;;;;41.05;23.40;;;15.00;99.90;;;;;;5041610;28;20042;-65